TimeMST,TemperatureF,Dew PointF,Humidity,Sea Level PressureIn,VisibilityMPH,Wind Direction,Wind SpeedMPH,Gust SpeedMPH,PrecipitationIn,Events,Conditions,WindDirDegrees,DateUTC
12:56 AM,-6.9,-10.8,83,30.02,10.0,NE,3.5,-,N/A,,Partly Cloudy,50,2012-12-19 07:56:00
1:56 AM,-4.9,-8.9,83,30.03,10.0,ENE,3.5,-,N/A,,Clear,70,2012-12-19 08:56:00
2:30 AM,-5.8,-9.4,84,29.84,10.0,East,4.6,-,N/A,,Mostly Cloudy,80,2012-12-19 09:30:00
2:56 AM,-0.9,-4.9,83,30.01,10.0,East,4.6,-,N/A,,Overcast,100,2012-12-19 09:56:00
3:56 AM,2.1,-2.9,79,30.06,10.0,ESE,3.5,-,N/A,,Overcast,120,2012-12-19 10:56:00
4:26 AM,3.2,-2.2,78,29.87,10.0,SW,3.5,-,N/A,,Overcast,230,2012-12-19 11:26:00
4:37 AM,1.4,-4.0,78,29.87,10.0,Calm,Calm,-,N/A,,Overcast,0,2012-12-19 11:37:00
4:48 AM,1.4,-4.0,78,29.87,10.0,Calm,Calm,-,0.00,Snow,Light Snow,0,2012-12-19 11:48:00
4:56 AM,1.0,-4.0,79,30.11,10.0,Calm,Calm,-,0.00,,Overcast,0,2012-12-19 11:56:00
5:33 AM,-0.4,-5.8,78,29.89,10.0,Calm,Calm,-,N/A,,Scattered Clouds,0,2012-12-19 12:33:00
5:56 AM,-4.9,-9.9,79,30.17,10.0,Calm,Calm,-,N/A,,Clear,0,2012-12-19 12:56:00
6:56 AM,-6.9,-10.8,83,30.21,10.0,ENE,5.8,-,N/A,,Clear,70,2012-12-19 13:56:00
7:07 AM,-7.6,-11.2,84,29.95,10.0,Calm,Calm,-,N/A,,Partly Cloudy,0,2012-12-19 14:07:00
7:19 AM,-4.0,-9.4,78,29.95,10.0,NW,3.5,-,N/A,,Mostly Cloudy,320,2012-12-19 14:19:00
7:56 AM,2.1,-4.0,76,30.21,10.0,Calm,Calm,-,N/A,,Overcast,0,2012-12-19 14:56:00
8:56 AM,2.1,-4.0,76,30.25,10.0,SW,3.5,-,N/A,,Mostly Cloudy,220,2012-12-19 15:56:00
9:25 AM,1.4,-2.2,85,30.02,10.0,Calm,Calm,-,N/A,,Mostly Cloudy,0,2012-12-19 16:25:00
9:35 AM,1.4,-2.2,85,30.02,10.0,SSW,3.5,-,N/A,,Scattered Clouds,210,2012-12-19 16:35:00
9:56 AM,2.1,-2.9,79,30.30,10.0,SE,3.5,-,N/A,,Clear,140,2012-12-19 16:56:00
10:56 AM,9.1,0.1,67,30.30,10.0,Calm,Calm,-,N/A,,Clear,0,2012-12-19 17:56:00
11:56 AM,9.1,0.1,67,30.31,10.0,NW,4.6,-,N/A,,Clear,320,2012-12-19 18:56:00
12:48 PM,12.2,1.4,62,30.08,10.0,North,5.8,-,N/A,,Mostly Cloudy,350,2012-12-19 19:48:00
12:56 PM,11.1,3.0,70,30.34,10.0,NNW,4.6,-,N/A,,Overcast,340,2012-12-19 19:56:00
1:31 PM,15.8,5.0,62,30.08,10.0,ENE,3.5,-,0.00,Snow,Light Snow,60,2012-12-19 20:31:00
1:56 PM,16.2,5.0,62,30.31,10.0,Calm,Calm,-,0.00,,Mostly Cloudy,0,2012-12-19 20:56:00
2:15 PM,14.0,3.2,62,30.10,10.0,Calm,Calm,-,N/A,,Partly Cloudy,0,2012-12-19 21:15:00
2:56 PM,16.2,4.1,59,30.30,10.0,Calm,Calm,-,N/A,,Clear,0,2012-12-19 21:56:00
3:56 PM,11.1,2.1,67,30.36,10.0,SW,3.5,-,N/A,,Clear,220,2012-12-19 22:56:00
4:56 PM,7.2,0.1,73,30.41,10.0,SE,6.9,-,N/A,,Mostly Cloudy,130,2012-12-19 23:56:00
5:56 PM,5.0,-1.8,73,30.48,10.0,SSE,9.2,-,N/A,,Clear,150,2012-12-20 00:56:00
6:56 PM,7.2,-0.9,69,30.50,10.0,SSE,10.4,-,N/A,,Scattered Clouds,150,2012-12-20 01:56:00
7:56 PM,12.0,4.1,71,30.45,10.0,SSE,8.1,-,N/A,,Overcast,160,2012-12-20 02:56:00
8:56 PM,13.1,5.0,70,30.46,10.0,SSE,10.4,-,N/A,,Overcast,150,2012-12-20 03:56:00
9:56 PM,14.0,5.0,67,30.47,10.0,South,8.1,-,N/A,,Overcast,170,2012-12-20 04:56:00
10:56 PM,14.0,6.1,71,30.43,10.0,SSE,4.6,-,N/A,,Overcast,150,2012-12-20 05:56:00
11:56 PM,13.1,5.0,70,30.45,10.0,SSE,4.6,-,N/A,,Overcast,160,2012-12-20 06:56:00